KGCC/GCC METAR and TAF weather

Enter ICAO airport designator
Station Type Date Time Source
KGCC METAR 2021/04/18 02:53 UTC NOAA

KGCC 180253Z AUTO 23003KT 10SM CLR 02/M02 A3014 RMK AO2 SLP225 T00171017 53001


Station Type Date Time Source
KGCC Decoded METAR 2021/04/18 02:53 UTC NOAA

GILLETTE-CAMPBELL CTY AIRPORT , WY, United States (KGCC) 44-20N 105-33W 1320M
Apr 17, 2021 - 10:53 PM EDT / 2021.04.18 0253 UTC
Wind: from the SW (230 degrees) at 3 MPH (3 KT):0
Visibility: 10 mile(s):0
Sky conditions: clear
Temperature: 35.1 F (1.7 C)
Dew Point: 28.9 F (-1.7 C)
Relative Humidity: 78%
Pressure (altimeter): 30.14 in. Hg (1020 hPa)
Pressure tendency: 0.00 inches (0.1 hPa) higher than three hours ago
ob: KGCC 180253Z AUTO 23003KT 10SM CLR 02/M02 A3014 RMK AO2 SLP225 T00171017 53001
cycle: 3

Station Type Date Time Source
KGCC TAF 2021/04/17 20:30 UTC NOAA

TAF
AMD KGCC 172026Z 1720/1818 35012G23KT P6SM SCT040
FM180200 23009KT P6SM BKN150
FM181600 31013KT P6SM SCT080 BKN150

Example: see airport list